Flight Track Log - Related Links

Times and Time Zones

All times are in EDT time to prevent confusion due to time zone crossing. See the AWE1940 flight status page for this flight to view local times or setup timezone preferences in your user account.

Time Position Orientation Groundspeed Altitude Reporting Facility
EDT Latitude Longitude Course Direction KTS MPH feet Rate Location/Type
Thu 07:32:09 PM 26.6617 -81.7100 344° North 237 273 5,900  Level Miami Center
Thu 07:33:09 PM 26.7283 -81.7150 356° North 237 273 8,100 2,200 Climbing Miami Center
Thu 07:34:09 PM 26.8053 -81.7228 355° North 249 287 10,300 2,380 Climbing Miami Center
Thu 07:35:10 PM 26.8864 -81.7333 353° North 276 318 12,900 2,400 Climbing Miami Center
Thu 07:36:00 PM 27.2726 -81.8257 340° North  Level FlightAware Approximate
Thu 07:36:09 PM 26.9719 -81.7392 357° North 292 336 15,100  Level Miami Center
Thu 07:37:00 PM 27.3920 -81.8696 344° North  Level FlightAware Approximate
Thu 07:37:09 PM 27.0589 -81.7567 350° North 304 350 17,100  Level Miami Center
Thu 07:38:09 PM 27.1581 -81.7889 344° North 322 371 19,100 1,800 Climbing Miami Center
Thu 07:39:09 PM 27.2406 -81.8181 343° North 338 389 20,700 1,450 Climbing Miami Center
Thu 07:40:09 PM 27.3394 -81.8506 344° North 355 409 22,000 1,550 Climbing Miami Center
Thu 07:41:09 PM 27.4489 -81.8903 342° North 374 430 23,800 1,600 Climbing Miami Center
Thu 07:42:09 PM 27.5539 -81.9275 343° North 388 447 25,200 1,350 Climbing Miami Center
Thu 07:43:09 PM 27.6589 -81.9650 342° North 393 452 26,500 1,300 Climbing Miami Center
Thu 07:44:09 PM 27.7558 -81.9975 343° North 398 458 27,800 1,250 Climbing Miami Center
Thu 07:45:09 PM 27.8825 -82.0150 353° North 398 458 29,000 870 Climbing Miami Center
Thu 07:46:20 PM 27.9950 -82.0842 332° Northwest 418 481 29,700 916 Climbing Jacksonville Center
Thu 07:47:20 PM 28.0936 -82.1656 324° Northwest 417 480 31,000 1,400 Climbing Jacksonville Center
Thu 07:48:20 PM 28.1922 -82.2450 325° Northwest 429 494 32,500 1,150 Climbing Jacksonville Center
Thu 07:49:20 PM 28.2989 -82.3056 333° Northwest 434 499 33,300 900 Climbing Jacksonville Center
Thu 07:50:20 PM 28.4200 -82.3331 349° North 434 499 34,300 650 Climbing Jacksonville Center
Thu 07:51:20 PM 28.5433 -82.3681 346° North 440 506 34,600 400 Climbing Jacksonville Center
Thu 07:52:20 PM 28.6708 -82.4028 347° North 452 520 35,100 600 Climbing Jacksonville Center
Thu 07:53:20 PM 28.7939 -82.4331 348° North 452 520 35,800 450 Climbing Jacksonville Center
Thu 07:54:20 PM 28.9381 -82.4725 347° North 471 542 36,000 50 Climbing Jacksonville Center
Thu 07:55:20 PM 29.0675 -82.5078 347° North 471 542 35,900 -50 Descending Jacksonville Center
Thu 07:56:20 PM 29.1972 -82.5453 346° North 471 542 35,900 50 Level Jacksonville Center
Thu 07:57:20 PM 29.3308 -82.5806 347° North 471 542 36,000 50 Climbing Jacksonville Center
Thu 07:58:20 PM 29.4644 -82.6017 352° North 471 542 36,000 -50 Level Jacksonville Center
Thu 07:59:20 PM 29.6022 -82.6011 360° North 491 565 35,900 -50 Descending Jacksonville Center
Thu 08:00:20 PM 29.7358 -82.6319 349° North 486 559 35,900 50 Level Jacksonville Center
Thu 08:01:20 PM 29.8675 -82.6697 346° North 486 559 36,000 300 Climbing Jacksonville Center
Thu 08:02:20 PM 29.9992 -82.7078 346° North 486 559 36,500 500 Climbing Jacksonville Center
Thu 08:03:20 PM 30.1244 -82.7364 349° North 475 547 37,000 250 Climbing Jacksonville Center
Thu 08:04:20 PM 30.2561 -82.7364 360° North 461 531 37,000  Level Jacksonville Center
Thu 08:05:20 PM 30.3853 -82.7119 North 461 531 37,000 -50 Level Jacksonville Center
Thu 08:06:20 PM 30.5128 -82.6875 North 461 531 36,900 -50 Descending Jacksonville Center
Thu 08:07:20 PM 30.6400 -82.6706 North 461 531 36,900 50 Level Jacksonville Center
Thu 08:08:20 PM 30.7653 -82.6458 10° North 461 531 37,000 50 Climbing Jacksonville Center
Thu 08:09:20 PM 30.8947 -82.6239 North 467 537 37,000  Level Jacksonville Center
Thu 08:10:20 PM 31.0283 -82.5992 North 467 537 37,000  Level Jacksonville Center
Thu 08:11:20 PM 31.1536 -82.5794 North 467 537 37,000  Level Jacksonville Center
Thu 08:12:20 PM 31.2828 -82.5572 North 467 537 37,000  Level Jacksonville Center
Thu 08:13:20 PM 31.3997 -82.5322 10° North 467 537 37,000  Level Jacksonville Center
Thu 08:15:37 PM 31.7075 -82.4814 North 465 535 37,000  Level Atlanta Center
Thu 08:16:37 PM 31.8367 -82.4619 North 465 535 37,000  Level Atlanta Center
Thu 08:17:37 PM 31.9617 -82.4428 North 460 529 37,000  Level Atlanta Center
Thu 08:18:37 PM 32.0908 -82.4258 North 460 529 37,000 -50 Level Atlanta Center
Thu 08:19:37 PM 32.2158 -82.4039 North 460 529 36,900 -500 Descending Atlanta Center
Thu 08:20:37 PM 32.3261 -82.3822 North 454 522 36,000 -900 Descending Atlanta Center
Thu 08:21:37 PM 32.4531 -82.3625 North 454 522 35,100 -600 Descending Atlanta Center
Thu 08:22:37 PM 32.5803 -82.3403 North 454 522 34,800 -600 Descending Atlanta Center
Thu 08:23:37 PM 32.7053 -82.3231 North 454 522 33,900 -900 Descending Atlanta Center
Thu 08:24:37 PM 32.8364 -82.3033 North 454 522 33,000 -450 Descending Atlanta Center
Thu 08:25:37 PM 32.9636 -82.2833 North 466 536 33,000  Level Atlanta Center
Thu 08:26:37 PM 33.0947 -82.2633 North 466 536 33,000 -350 Level Atlanta Center
Thu 08:27:37 PM 33.2281 -82.2408 North 466 536 32,300 -850 Descending Atlanta Center
Thu 08:28:37 PM 33.3569 -82.2208 North 466 536 31,300 -950 Descending Atlanta Center
Thu 08:29:37 PM 33.4861 -82.1981 North 466 536 30,400 -950 Descending Atlanta Center
Thu 08:30:37 PM 33.6214 -82.1753 North 466 536 29,400 -1,300 Descending Atlanta Center
Thu 08:31:37 PM 33.7672 -82.1597 North 476 548 27,800 -1,550 Descending Atlanta Center
Thu 08:32:37 PM 33.9008 -82.1592 360° North 476 548 26,300 -1,450 Descending Atlanta Center
Thu 08:33:37 PM 34.0367 -82.1586 360° North 476 548 24,900 -1,550 Descending Atlanta Center
Thu 08:34:37 PM 34.1681 -82.1558 North 476 548 23,200 -2,000 Descending Atlanta Center
Thu 08:35:37 PM 34.2844 -82.1206 14° North 458 527 20,900 -3,000 Descending Atlanta Center
Thu 08:36:37 PM 34.3661 -82.0156 47° Northeast 409 471 17,200 -3,650 Descending Atlanta Center
Thu 08:37:37 PM 34.4417 -81.9131 48° Northeast 404 465 13,600 -3,050 Descending Atlanta Center
Thu 08:38:37 PM 34.5150 -81.8203 46° Northeast 393 452 11,100 -1,444 Descending Atlanta Center
Thu 08:39:25 PM 34.5764 -81.7481 44° Northeast 371 427 11,000 -65 Descending Atlanta Center
Thu 08:40:09 PM 34.6253 -81.6861 46° Northeast 369 425 11,000  Level Atlanta Center
Thu 08:40:37 PM 34.6578 -81.6397 50° Northeast 376 433 11,000  Level Atlanta Center
Thu 08:41:10 PM 34.6906 -81.6011 44° Northeast 340 391 11,000  Level Atlanta Center
Thu 08:41:37 PM 34.7189 -81.5622 48° Northeast 343 395 11,000  Level Atlanta Center
Thu 08:42:11 PM 34.7536 -81.5233 43° Northeast 284 327 11,000  Level Atlanta Center
Thu 08:42:37 PM 34.7739 -81.4922 52° Northeast 300 345 11,000 -716 Level Atlanta Center
Thu 08:43:18 PM 34.7914 -81.4311 71° East 282 325 10,200 -1,200 Descending Atlanta Center
Thu 08:43:37 PM 34.7867 -81.4058 103° East 257 296 9,800 -1,309 Descending Atlanta Center
Thu 08:44:13 PM 34.7750 -81.3506 104° East 272 313 9,000 -800 Descending Atlanta Center
Thu 08:44:37 PM 34.7514 -81.3236 137° Southeast 257 296 9,000  Level Atlanta Center
Thu 08:45:14 PM 34.7317 -81.2789 118° Southeast 269 310 9,000  Level Atlanta Center
Thu 08:45:37 PM 34.7308 -81.2433 92° East 245 282 9,000  Level Atlanta Center
Thu 08:46:15 PM 34.7275 -81.1881 94° East 268 308 9,000  Level Atlanta Center
Thu 08:46:37 PM 34.7244 -81.1528 96° East 257 296 9,000 -545 Level Atlanta Center
Thu 08:47:10 PM 34.7256 -81.1022 88° East 272 313 8,500 -1,000 Descending Atlanta Center
Thu 08:47:37 PM 34.7222 -81.0592 95° East 267 307 8,000 -492 Descending Atlanta Center
Thu 08:48:11 PM 34.7211 -81.0086 92° East 265 305 8,000  Level Atlanta Center
Thu 08:48:37 PM 34.7222 -80.9708 88° East 267 307 8,000  Level Atlanta Center
Thu 08:49:18 PM 34.7481 -80.9244 56° Northeast 268 308 8,000  Level Atlanta Center
Thu 08:50:19 PM 34.8169 -80.9192 North 242 278 8,000 -492 Level Atlanta Center
Thu 08:51:20 PM 34.8900 -80.9267 355° North 241 277 7,000 -1,230 Descending Atlanta Center
Thu 08:52:21 PM 34.9592 -80.9342 355° North 244 281 5,500 -1,328 Descending Atlanta Center
Thu 08:53:22 PM 35.0197 -80.9394 356° North 228 262 4,300 -1,082 Descending Atlanta Center
Thu 08:54:23 PM 35.0700 -80.9403 359° North 175 201 3,300 -984 Descending Atlanta Center

Login

Don't have an account? Register now (free) for customized features, flight alerts, and more!